Air Resources Laboratory banner image
Air Resources Laboratory web site National Oceanic and Atmospheric Administration (NOAA)

ne metar


KAIA 110653Z AUTO 18008KT 10SM CLR 20/09 A3022 RMK AO2 SLP178 T02000094
 403720133=
KANW 110655Z AUTO 20008KT 10SM CLR 24/15 A3015 RMK AO2 T02380145=
KAUH 110655Z AUTO 18005KT 10SM BKN100 23/19 A3018 RMK AO2 T02280186=
KBBW 110653Z AUTO 13003KT 10SM CLR 21/16 A3019 RMK AO2 SLP196 T02060161=
KBFF 110653Z AUTO 12008KT 10SM CLR 26/12 A3021 RMK AO2 SLP168 T02610117
 403830194=
KBIE 110655Z AUTO 00000KT 10SM CLR 21/16 A3019 RMK AO2 T02110162=
KCDR 110653Z AUTO 18017KT 10SM CLR 28/08 A3013 RMK AO2 PK WND 19027/0622 SLP162
 T02830083 404000156 $=
KEAR 110656Z AUTO 18007KT 10SM CLR 22/18 A3019 RMK AO2 SLP201 T02170178=
KFET 110655Z AUTO 19006KT 10SM CLR 26/17 A3016 RMK AO2 T02550170=
KFNB 110653Z AUTO 00000KT 10SM CLR 18/18 A3016 RMK AO2 SLP206 T01830178=
KGRI 110653Z AUTO 17005KT 10SM CLR 22/18 A3018 RMK AO2 SLP206 T02220178 $=
KHDE 110655Z AUTO 18004KT 10SM CLR 19/17 A3019 RMK AO2 T01900172=
KHSI 110653Z AUTO 18007KT 10SM BKN100 23/17 A3020 RMK AO2 SLP205 T02330172=
KIML 110653Z AUTO 20012KT 10SM CLR 23/12 A3023 RMK AO2 SLP196 T02280122
 403670150=
KLBF 110653Z AUTO 20003KT 10SM CLR 24/13 A3019 RMK AO2 SLP188 T02390128=
KLNK 110654Z 00000KT 10SM CLR 23/17 A3018 RMK AO2 SLP206 T02280167=
KLXN 110655Z AUTO 16006KT 10SM CLR 23/16 A3020 RMK AO2 T02260161=
KMCK 110653Z AUTO 22009KT 10SM FEW110 24/12 A3020 RMK AO2 SLP195 T02390122=
KODX 110653Z AUTO 00000KT 10SM CLR 20/19 A3016 RMK AO2 SLP200 T02000189=
KOFF 110656Z 00000KT 10SM CLR 22/18 A3018 RMK AO2A SLP215 T02220177 PWINO PNO
 FZRANO TSNO VISNO RWY12 CHINO RWY12 $=
KOFK 110656Z AUTO 18006KT 10SM CLR 24/18 A3015 RMK AO2 SLP192 T02390178=
KOGA 110655Z AUTO 20010KT 10SM CLR 24/10 A3022 RMK AO2 T02420103 403720158=
KOLU 110656Z AUTO 17007KT 10SM SCT095 23/18 A3018 RMK AO2 SLP208 T02280183=
KOMA 110652Z 00000KT 10SM CLR 23/19 A3016 RMK AO2 SLP204 T02330189=
KONL 110655Z AUTO 17009KT 10SM CLR 23/19 A3015 RMK AO2 T02310185=
KSNY 110653Z AUTO 19012KT 10SM CLR 23/11 A3026 RMK AO2 SLP182 T02280111
 403610172=
KTQE 110654Z AUTO 13004KT 10SM CLR 19/17 A3015 RMK AO2 SLP197 T01940172=
KVTN 110652Z AUTO 20010KT 10SM CLR 24/14 A3013 RMK AO2 SLP174 T02390139=